Time;durP1;ratioP1;P1;durP2;ratioP2;P2;SDS_P1;SDS_P2;PMS_P1;PMS_P2;Temp;Humidity;BMP_temperature;BMP_pressure;BME280_temperature;BME280_humidity;BME280_pressure;Samples;Min_cycle;Max_cycle;Signal;HPM_P1;HPM_P2
2022/09/14 00:00:42;;;;;;;5.10;1.98;;;;;;;10.31;100.00;100710.53;2072753;28;20034;-71
2022/09/14 00:01:43;;;;;;;5.75;1.92;;;;;;;10.31;100.00;100710.53;2072926;28;35340;-71
2022/09/14 00:02:48;;;;;;;7.07;2.10;;;;;;;10.34;100.00;100714.94;2073057;28;30888;-71
2022/09/14 00:04:17;;;;;;;6.03;1.88;;;;;;;10.34;100.00;100713.16;2072285;28;34678;-71
2022/09/14 00:05:19;;;;;;;8.32;2.00;;;;;;;10.34;100.00;100707.81;2072789;28;31003;-71
2022/09/14 00:06:22;;;;;;;7.20;2.20;;;;;;;10.35;100.00;100712.22;2072234;28;40085;-71
2022/09/14 00:07:24;;;;;;;7.43;1.88;;;;;;;10.35;100.00;100706.00;2072554;28;37812;-71
2022/09/14 00:08:26;;;;;;;4.75;1.90;;;;;;;10.35;100.00;100704.19;2072537;28;34891;-71
2022/09/14 00:09:28;;;;;;;7.93;2.50;;;;;;;10.35;100.00;100706.88;2073514;28;20081;-71
2022/09/14 00:10:30;;;;;;;8.23;1.80;;;;;;;10.34;100.00;100702.44;2072311;28;40196;-71
2022/09/14 00:11:34;;;;;;;7.38;2.28;;;;;;;10.33;100.00;100706.03;2072683;28;20052;-71
2022/09/14 00:12:36;;;;;;;5.78;1.60;;;;;;;10.31;100.00;100700.72;2071654;28;31736;-71
2022/09/14 00:13:42;;;;;;;3.72;2.03;;;;;;;10.30;100.00;100712.31;2072475;28;40270;-71
2022/09/14 00:14:44;;;;;;;5.95;1.75;;;;;;;10.28;100.00;100702.56;2073202;28;20197;-71
2022/09/14 00:15:46;;;;;;;6.03;1.80;;;;;;;10.27;100.00;100703.50;2072406;28;37451;-71
2022/09/14 00:16:51;;;;;;;4.80;1.95;;;;;;;10.24;100.00;100696.41;2072760;28;29663;-71
2022/09/14 00:17:55;;;;;;;5.88;1.80;;;;;;;10.23;100.00;100702.69;2071945;28;34677;-71
2022/09/14 00:19:05;;;;;;;3.53;1.67;;;;;;;10.21;100.00;100699.19;2071832;28;39460;-71
2022/09/14 00:20:08;;;;;;;3.72;1.75;;;;;;;10.17;100.00;100702.81;2073298;28;20054;-71
2022/09/14 00:21:12;;;;;;;4.32;1.95;;;;;;;10.17;100.00;100702.81;2072168;28;39834;-71
2022/09/14 00:22:14;;;;;;;4.05;2.33;;;;;;;10.16;100.00;100701.09;2072472;28;31436;-71
2022/09/14 00:23:15;;;;;;;7.13;1.85;;;;;;;10.16;100.00;100705.53;2072043;28;38259;-71
2022/09/14 00:24:20;;;;;;;4.72;1.90;;;;;;;10.14;100.00;100700.25;2072366;28;34328;-71
2022/09/14 00:25:22;;;;;;;3.20;1.60;;;;;;;10.13;100.00;100701.16;2073710;28;20054;-71
2022/09/14 00:26:25;;;;;;;6.28;1.75;;;;;;;10.10;100.00;100701.22;2072619;28;32501;-71
2022/09/14 00:27:27;;;;;;;4.47;2.25;;;;;;;10.10;100.00;100695.88;2063508;28;25284;-71
2022/09/14 00:28:28;;;;;;;6.53;2.05;;;;;;;10.10;100.00;100691.44;2063950;28;35160;-71
2022/09/14 00:29:32;;;;;;;8.30;2.40;;;;;;;10.08;100.00;100700.38;2080487;28;34424;-70
2022/09/14 00:30:33;;;;;;;6.05;2.42;;;;;;;10.09;100.00;100694.13;2080628;28;37076;-72
2022/09/14 00:31:39;;;;;;;7.68;2.53;;;;;;;10.10;100.00;100693.19;2080495;28;39192;-71
2022/09/14 00:32:41;;;;;;;4.95;1.95;;;;;;;10.10;100.00;100690.53;2080839;28;37546;-72
2022/09/14 00:33:49;;;;;;;6.28;2.55;;;;;;;10.09;100.00;100694.13;2080988;28;28833;-72
2022/09/14 00:34:50;;;;;;;5.05;2.30;;;;;;;10.09;100.00;100694.13;2080939;28;33216;-72
2022/09/14 00:35:52;;;;;;;4.03;1.63;;;;;;;10.10;100.00;100698.53;2074481;28;33088;-72
2022/09/14 00:36:56;;;;;;;11.90;2.72;;;;;;;10.09;100.00;100688.78;2073075;28;20035;-72
2022/09/14 00:37:58;;;;;;;6.10;1.85;;;;;;;10.10;100.00;100691.44;2072127;28;40197;-72
2022/09/14 00:38:59;;;;;;;7.78;2.80;;;;;;;10.10;100.00;100690.53;2072404;28;36084;-72
2022/09/14 00:40:04;;;;;;;7.22;2.58;;;;;;;10.10;100.00;100693.19;2071657;28;29919;-72
2022/09/14 00:41:10;;;;;;;9.75;2.30;;;;;;;10.08;100.00;100695.03;2071265;28;35937;-72
2022/09/14 00:42:18;;;;;;;5.85;2.08;;;;;;;10.06;100.00;100688.84;2072673;28;29031;-72
2022/09/14 00:43:19;;;;;;;7.97;2.30;;;;;;;10.06;100.00;100687.03;2071859;28;33069;-72
2022/09/14 00:44:21;;;;;;;7.78;2.85;;;;;;;10.08;100.00;100681.66;2071607;28;37417;-72
2022/09/14 00:45:24;;;;;;;6.93;2.58;;;;;;;10.11;100.00;100694.97;2073026;28;20133;-72
2022/09/14 00:46:29;;;;;;;7.18;3.40;;;;;;;10.11;100.00;100689.63;2071653;28;37919;-72
2022/09/14 00:47:31;;;;;;;5.75;2.85;;;;;;;10.09;100.00;100681.63;2064881;28;31875;-72
2022/09/14 00:48:33;;;;;;;6.55;3.28;;;;;;;10.08;100.00;100687.00;2064639;28;25677;-72
2022/09/14 00:49:41;;;;;;;6.88;2.60;;;;;;;10.08;100.00;100681.66;2072151;28;20035;-72
2022/09/14 00:50:43;;;;;;;12.10;2.85;;;;;;;10.08;100.00;100681.66;2064766;28;32024;-72
2022/09/14 00:51:59;;;;;;;3.63;2.08;;;;;;;10.06;100.00;100680.81;2071666;28;32242;-72
2022/09/14 00:53:04;;;;;;;7.10;2.70;;;;;;;10.03;100.00;100679.13;2071814;28;37698;-72
2022/09/14 00:54:06;;;;;;;3.63;2.03;;;;;;;10.05;100.00;100673.69;2066347;28;20054;-72
2022/09/14 00:55:15;;;;;;;5.75;2.35;;;;;;;10.04;100.00;100674.63;2071468;28;38786;-71
2022/09/14 00:56:17;;;;;;;5.75;2.70;;;;;;;10.04;100.00;100682.66;2071379;28;37735;-71
2022/09/14 00:57:20;;;;;;;7.43;2.40;;;;;;;10.02;100.00;100679.16;2064221;28;36025;-72
2022/09/14 00:58:21;;;;;;;5.80;2.72;;;;;;;10.01;100.00;100672.03;2071952;28;28347;-71
2022/09/14 00:59:29;;;;;;;4.85;2.53;;;;;;;10.01;100.00;100680.06;2072408;28;31532;-71
2022/09/14 01:00:31;;;;;;;7.60;2.67;;;;;;;9.99;100.00;100685.44;2072193;28;20169;-71
2022/09/14 01:01:34;;;;;;;5.38;2.33;;;;;;;9.98;100.00;100682.78;2071741;28;34398;-72
2022/09/14 01:02:37;;;;;;;8.50;3.40;;;;;;;9.96;100.00;100687.31;2071991;28;36427;-72
2022/09/14 01:03:38;;;;;;;4.40;3.03;;;;;;;9.95;100.00;100689.13;2071855;28;28872;-72
2022/09/14 01:04:41;;;;;;;5.63;2.33;;;;;;;9.97;100.00;100694.44;2071537;28;38497;-72
2022/09/14 01:06:35;;;;;;;8.05;3.40;;;;;;;9.97;100.00;100689.09;2072969;28;22650;-72
2022/09/14 01:08:05;;;;;;;5.95;2.63;;;;;;;9.96;100.00;100687.31;2071596;28;33693;-72
2022/09/14 01:09:43;;;;;;;7.43;2.33;;;;;;;9.94;100.00;100680.22;2072856;28;20039;-72
2022/09/14 01:11:19;;;;;;;4.72;2.33;;;;;;;9.93;100.00;100683.78;2072670;28;20046;-71
2022/09/14 01:12:38;;;;;;;5.35;2.92;;;;;;;10.02;100.00;100680.03;2071832;28;35038;-72
2022/09/14 01:14:27;;;;;;;5.70;2.97;;;;;;;9.97;100.00;100675.72;2072431;28;32863;-72
2022/09/14 01:15:59;;;;;;;7.30;3.00;;;;;;;9.98;100.00;100678.34;2070770;28;36454;-71
2022/09/14 01:17:49;;;;;;;6.22;3.85;;;;;;;10.04;100.00;100680.00;2072023;28;37119;-71
2022/09/14 01:19:13;;;;;;;7.28;2.92;;;;;;;10.06;100.00;100678.16;2071206;28;33751;-72
2022/09/14 01:20:44;;;;;;;5.40;3.13;;;;;;;10.08;100.00;100676.31;2070261;28;37571;-72
2022/09/14 01:21:48;;;;;;;7.10;3.28;;;;;;;10.07;100.00;100666.53;2068561;28;42779;-72
2022/09/14 01:23:08;;;;;;;7.15;3.50;;;;;;;10.09;100.00;100672.72;2067304;28;35977;-72
2022/09/14 01:24:44;;;;;;;;;;;;;;;10.06;100.00;100662.09;2072408;28;34373;-72
2022/09/14 01:26:15;;;;;;;7.25;3.03;;;;;;;10.03;100.00;100667.53;2072467;28;28911;-71
2022/09/14 01:27:40;;;;;;;6.95;3.50;;;;;;;9.99;100.00;100661.38;2071363;28;40410;-72
2022/09/14 01:29:17;;;;;;;8.43;3.63;;;;;;;10.00;100.00;100659.59;2072068;28;32701;-72
2022/09/14 01:30:22;;;;;;;7.18;3.40;;;;;;;9.99;100.00;100660.50;2072457;28;34161;-72
2022/09/14 01:31:42;;;;;;;8.48;3.40;;;;;;;9.97;100.00;100659.66;2070902;28;37516;-72
2022/09/14 01:33:13;;;;;;;6.75;3.88;;;;;;;9.98;100.00;100656.06;2066432;28;32762;-72
2022/09/14 01:34:38;;;;;;;8.73;4.40;;;;;;;9.97;100.00;100657.00;2063185;28;20042;-72
2022/09/14 01:35:52;;;;;;;8.93;4.10;;;;;;;9.98;100.00;100661.41;2071232;28;34188;-71
2022/09/14 01:37:11;;;;;;;8.30;4.15;;;;;;;9.95;100.00;100665.03;2072624;28;20121;-71
2022/09/14 01:38:25;;;;;;;7.63;2.85;;;;;;;9.95;100.00;100670.38;2071308;28;35822;-72
2022/09/14 01:39:32;;;;;;;8.55;3.58;;;;;;;9.90;100.00;100673.16;2067769;28;20333;-71
2022/09/14 01:40:46;;;;;;;8.18;3.83;;;;;;;9.87;100.00;100665.25;2071907;28;35331;-72
2022/09/14 01:41:54;;;;;;;7.28;4.22;;;;;;;9.87;100.00;100662.56;2071423;28;34495;-72
2022/09/14 01:43:10;;;;;;;5.18;3.30;;;;;;;9.85;100.00;100664.41;2071857;28;38047;-71
2022/09/14 01:44:39;;;;;;;5.63;3.47;;;;;;;9.80;100.00;100668.97;2071018;28;40516;-72
2022/09/14 01:45:47;;;;;;;5.90;3.10;;;;;;;9.78;100.00;100668.16;2071747;28;39597;-72
2022/09/14 01:47:03;;;;;;;7.32;4.07;;;;;;;9.76;100.00;100667.28;2072331;28;36867;-72
2022/09/14 01:48:07;;;;;;;5.47;4.20;;;;;;;9.75;100.00;100665.53;2071319;28;39773;-72
2022/09/14 01:49:21;;;;;;;8.05;4.32;;;;;;;9.74;100.00;100671.78;2067384;28;35189;-71
2022/09/14 01:50:45;;;;;;;11.05;4.85;;;;;;;9.72;100.00;100658.44;2065312;28;37247;-71
2022/09/14 01:51:52;;;;;;;7.05;3.38;;;;;;;9.72;100.00;100669.16;2067054;28;33008;-72
2022/09/14 01:53:11;;;;;;;9.57;4.10;;;;;;;9.71;100.00;100664.72;2071710;28;34970;-72
2022/09/14 01:54:25;;;;;;;5.05;3.33;;;;;;;9.69;100.00;100669.25;2079563;28;37898;-72
2022/09/14 01:55:44;;;;;;;5.72;3.30;;;;;;;9.66;100.00;100660.41;2071658;28;39739;-72
2022/09/14 01:57:14;;;;;;;8.20;4.20;;;;;;;9.64;100.00;100659.56;2066781;28;31650;-72
2022/09/14 01:58:54;;;;;;;9.48;4.00;;;;;;;9.63;100.00;100660.47;2068405;28;39782;-72
2022/09/14 02:00:01;;;;;;;7.85;4.50;;;;;;;9.62;100.00;100658.72;2072283;28;24440;-72
2022/09/14 02:01:12;;;;;;;10.50;4.95;;;;;;;9.63;100.00;100657.81;2079049;28;20046;-72
2022/09/14 02:02:28;;;;;;;6.22;3.83;;;;;;;9.65;100.00;100662.19;2079625;28;37674;-72
2022/09/14 02:03:46;;;;;;;8.00;4.07;;;;;;;9.66;100.00;100666.63;2074557;28;36108;-72
2022/09/14 02:05:13;;;;;;;5.32;3.72;;;;;;;9.67;100.00;100656.81;2084255;28;20107;-72
2022/09/14 02:06:32;;;;;;;7.18;5.05;;;;;;;9.68;100.00;100653.22;2084984;28;20089;-71
2022/09/14 02:07:36;;;;;;;11.93;4.90;;;;;;;9.71;100.00;100654.03;2079839;28;32996;-72
2022/09/14 02:08:38;;;;;;;11.07;4.15;;;;;;;9.72;100.00;100647.75;2079295;28;36727;-72
2022/09/14 02:09:42;;;;;;;7.95;4.63;;;;;;;9.74;100.00;100645.06;2080407;28;20030;-72
2022/09/14 02:10:44;;;;;;;8.48;4.45;;;;;;;9.74;100.00;100648.63;2071944;28;25098;-72
2022/09/14 02:11:46;;;;;;;9.57;4.95;;;;;;;9.75;100.00;100650.38;2079238;28;40303;-72
2022/09/14 02:12:48;;;;;;;6.00;4.50;;;;;;;9.78;100.00;100651.19;2079920;28;20160;-71
2022/09/14 02:13:49;;;;;;;6.38;4.28;;;;;;;9.79;100.00;100648.50;2079734;28;20098;-72
2022/09/14 02:14:53;;;;;;;7.70;4.57;;;;;;;9.80;100.00;100649.38;2079891;28;31729;-72
2022/09/14 02:15:55;;;;;;;7.95;5.18;;;;;;;9.81;100.00;100641.31;2078924;28;36495;-72
2022/09/14 02:16:57;;;;;;;7.47;4.28;;;;;;;9.84;100.00;100645.72;2071343;28;30844;-72
2022/09/14 02:18:02;;;;;;;6.85;4.07;;;;;;;9.84;100.00;100646.59;2071705;28;35719;-72
2022/09/14 02:19:04;;;;;;;6.13;5.03;;;;;;;9.84;100.00;100649.25;2076024;28;36757;-72
2022/09/14 02:20:17;;;;;;;11.02;4.90;;;;;;;9.85;100.00;100643.00;2072104;28;34811;-72
2022/09/14 02:21:26;;;;;;;10.70;5.68;;;;;;;9.87;100.00;100642.94;2071022;28;35854;-72
2022/09/14 02:22:29;;;;;;;8.50;5.85;;;;;;;9.91;100.00;100645.53;2066025;28;30549;-71
2022/09/14 02:23:34;;;;;;;8.82;6.10;;;;;;;9.96;100.00;100644.53;2070132;28;33765;-72
2022/09/14 02:24:36;;;;;;;14.95;5.93;;;;;;;9.97;100.00;100646.28;2070347;28;22948;-72
2022/09/14 02:25:39;;;;;;;7.40;5.40;;;;;;;9.98;100.00;100642.69;2071125;28;27467;-72
2022/09/14 02:26:41;;;;;;;11.55;6.07;;;;;;;9.98;100.00;100643.59;2071520;28;33572;-72
2022/09/14 02:27:43;;;;;;;8.85;4.55;;;;;;;9.98;100.00;100638.22;2070875;28;32016;-72
2022/09/14 02:28:46;;;;;;;14.70;6.28;;;;;;;10.01;100.00;100632.78;2071789;28;20033;-71
2022/09/14 02:29:49;;;;;;;11.60;6.40;;;;;;;10.07;100.00;100637.13;2070954;28;36463;-72
2022/09/14 02:31:30;;;;;;;9.30;4.80;;;;;;;10.01;100.00;100632.78;2071360;28;29276;-71
2022/09/14 02:32:46;;;;;;;;;;;;;;;9.96;100.00;100629.38;2072135;28;34453;-71
2022/09/14 02:34:04;;;;;;;5.50;4.53;;;;;;;9.98;100.00;100631.97;2071511;28;37017;-72
2022/09/14 02:35:32;;;;;;;7.38;5.07;;;;;;;9.98;100.00;100631.97;2071193;28;35995;-72
2022/09/14 02:37:02;;;;;;;12.10;5.22;;;;;;;9.96;100.00;100636.50;2071696;28;29494;-72
2022/09/14 02:38:13;;;;;;;11.68;5.03;;;;;;;9.93;100.00;100624.09;2070661;28;41595;-71
2022/09/14 02:39:21;;;;;;;;;;;;;;;9.90;100.00;100622.34;2072412;28;20047;-72
2022/09/14 02:40:53;;;;;;;8.15;4.85;;;;;;;9.90;100.00;100625.03;2071886;28;32701;-71
2022/09/14 02:42:11;;;;;;;7.88;5.30;;;;;;;9.93;100.00;100624.97;2071735;28;20031;-71
2022/09/14 02:43:50;;;;;;;9.80;6.20;;;;;;;9.92;100.00;100617.88;2071062;28;34982;-71
2022/09/14 02:44:54;;;;;;;7.60;4.88;;;;;;;9.94;100.00;100624.06;2071766;28;35169;-71
2022/09/14 02:47:19;;;;;;;6.85;5.22;;;;;;;9.98;100.00;100615.94;2071531;28;33101;-72
2022/09/14 02:48:39;;;;;;;9.43;6.20;;;;;;;10.00;100.00;100616.81;2067244;28;34829;-72
2022/09/14 02:50:21;;;;;;;;;;;;;;;10.03;100.00;100611.34;2071103;28;35476;-72
2022/09/14 02:51:39;;;;;;;10.43;6.47;;;;;;;10.06;100.00;100617.50;2070584;28;33917;-71
2022/09/14 02:52:56;;;;;;;12.68;6.60;;;;;;;10.06;100.00;100614.81;2070117;28;34220;-71
2022/09/14 02:54:16;;;;;;;11.07;6.20;;;;;;;10.03;100.00;100617.59;2071315;28;37395;-71
2022/09/14 02:55:22;;;;;;;6.70;5.88;;;;;;;9.99;100.00;100612.34;2071740;28;20050;-72
2022/09/14 02:56:25;;;;;;;11.65;6.43;;;;;;;9.99;100.00;100623.06;2071658;28;20844;-72
2022/09/14 02:57:27;;;;;;;10.05;6.88;;;;;;;10.00;100.00;100619.47;2063379;28;32195;-71
2022/09/14 02:58:38;;;;;;;7.55;6.28;;;;;;;9.98;100.00;100623.97;2070882;28;38317;-71
2022/09/14 02:59:42;;;;;;;12.93;7.60;;;;;;;9.98;100.00;100613.25;2070946;28;32355;-71
2022/09/14 03:00:49;;;;;;;11.00;7.40;;;;;;;9.94;100.00;100616.03;2070632;28;38987;-71
2022/09/14 03:01:51;;;;;;;11.07;6.50;;;;;;;9.98;100.00;100615.94;2071918;28;33819;-71
2022/09/14 03:02:52;;;;;;;11.23;7.50;;;;;;;9.95;100.00;100616.91;2071224;28;27497;-71
2022/09/14 03:03:54;;;;;;;10.73;6.95;;;;;;;9.92;100.00;100609.84;2071571;28;38408;-71
2022/09/14 03:04:57;;;;;;;11.88;8.00;;;;;;;9.94;100.00;100605.34;2071637;28;32892;-72
2022/09/14 03:06:03;;;;;;;15.43;8.45;;;;;;;9.91;100.00;100604.53;2071805;28;34491;-72
2022/09/14 03:07:04;;;;;;;11.43;7.40;;;;;;;9.89;100.00;100593.88;2071010;28;35176;-72
2022/09/14 03:08:09;;;;;;;12.90;7.80;;;;;;;9.92;100.00;100595.56;2071166;28;35328;-72
2022/09/14 03:09:10;;;;;;;14.98;8.60;;;;;;;9.91;100.00;100600.06;2070055;28;34520;-71
2022/09/14 03:10:12;;;;;;;10.18;7.82;;;;;;;9.90;100.00;100597.41;2071150;28;30609;-72
2022/09/14 03:11:14;;;;;;;8.50;7.55;;;;;;;9.85;100.00;100597.56;2071698;28;31539;-72
2022/09/14 03:12:16;;;;;;;8.98;7.05;;;;;;;9.85;100.00;100592.22;2071447;28;36315;-73
2022/09/14 03:13:17;;;;;;;9.23;6.47;;;;;;;9.82;100.00;100592.28;2070955;28;37332;-72
2022/09/14 03:14:19;;;;;;;11.30;6.13;;;;;;;9.80;100.00;100595.88;2071632;28;30473;-72
2022/09/14 03:15:21;;;;;;;9.10;7.15;;;;;;;9.79;100.00;100589.66;2071139;28;36482;-72
2022/09/14 03:16:23;;;;;;;8.88;5.78;;;;;;;9.76;100.00;100595.09;2071369;28;33912;-72
2022/09/14 03:17:24;;;;;;;8.05;5.72;;;;;;;9.72;100.00;100594.28;2071692;28;23997;-72
2022/09/14 03:18:26;;;;;;;9.35;6.57;;;;;;;9.68;100.00;100597.09;2071997;28;20050;-71
2022/09/14 03:19:31;;;;;;;6.75;5.60;;;;;;;9.66;100.00;100596.25;2078202;28;33967;-71
2022/09/14 03:20:34;;;;;;;9.50;6.50;;;;;;;9.62;100.00;100597.22;2079791;28;29970;-71
2022/09/14 03:21:38;;;;;;;9.55;6.68;;;;;;;9.61;100.00;100590.13;2079194;28;28619;-72
2022/09/14 03:22:42;;;;;;;12.25;7.00;;;;;;;9.60;100.00;100594.63;2071662;28;34200;-71
2022/09/14 03:23:50;;;;;;;9.50;7.05;;;;;;;9.60;100.00;100593.72;2079229;28;34228;-72
2022/09/14 03:24:51;;;;;;;12.85;7.78;;;;;;;9.60;100.00;100599.06;2078416;28;38882;-72
2022/09/14 03:25:53;;;;;;;13.35;7.85;;;;;;;9.60;100.00;100597.28;2078843;28;40151;-72
2022/09/14 03:26:55;;;;;;;8.88;7.07;;;;;;;9.63;100.00;100596.31;2079926;28;31421;-72
2022/09/14 03:27:58;;;;;;;11.20;7.32;;;;;;;9.59;100.00;100595.53;2079568;28;40131;-72
2022/09/14 03:29:00;;;;;;;10.57;7.35;;;;;;;9.58;100.00;100590.22;2079640;28;35520;-72
2022/09/14 03:30:04;;;;;;;10.85;6.78;;;;;;;9.56;100.00;100587.56;2079776;28;20045;-72
2022/09/14 03:31:11;;;;;;;12.30;7.95;;;;;;;9.54;100.00;100589.41;2079512;28;33444;-72
2022/09/14 03:32:12;;;;;;;11.35;7.70;;;;;;;9.53;100.00;100593.00;2079539;28;30222;-72
2022/09/14 03:33:14;;;;;;;13.38;7.10;;;;;;;9.51;100.00;100590.38;2079823;28;31043;-72
2022/09/14 03:34:16;;;;;;;11.70;8.43;;;;;;;9.51;100.00;100594.81;2079473;28;34399;-71
2022/09/14 03:35:18;;;;;;;9.02;7.22;;;;;;;9.50;100.00;100591.28;2079368;28;20053;-72
2022/09/14 03:36:20;;;;;;;12.90;7.65;;;;;;;9.49;100.00;100583.28;2079619;28;34564;-72
2022/09/14 03:37:23;;;;;;;14.02;8.02;;;;;;;9.49;100.00;100585.97;2079513;28;32787;-72
2022/09/14 03:38:28;;;;;;;13.50;8.10;;;;;;;9.53;100.00;100591.22;2079375;28;35124;-72
2022/09/14 03:39:30;;;;;;;8.40;7.32;;;;;;;9.52;100.00;100592.09;2079418;28;37706;-72
2022/09/14 03:40:32;;;;;;;13.93;7.55;;;;;;;9.53;100.00;100596.56;2078163;28;30766;-72
2022/09/14 03:41:33;;;;;;;12.25;8.30;;;;;;;9.54;100.00;100582.25;2079764;28;40587;-72
2022/09/14 03:42:40;;;;;;;13.38;10.05;;;;;;;9.62;100.00;100591.88;2079493;28;35578;-71
2022/09/14 03:43:42;;;;;;;16.23;9.35;;;;;;;9.63;100.00;100583.81;2079970;28;30466;-72
2022/09/14 03:44:46;;;;;;;14.82;9.48;;;;;;;9.71;100.00;100583.66;2079035;28;30381;-72
2022/09/14 03:45:47;;;;;;;9.32;8.32;;;;;;;9.72;100.00;100582.72;2079540;28;36804;-72
2022/09/14 03:46:49;;;;;;;15.75;8.50;;;;;;;9.67;100.00;100585.53;2079125;28;36259;-72
2022/09/14 03:47:51;;;;;;;12.27;8.82;;;;;;;9.69;100.00;100589.03;2080094;28;31375;-72
2022/09/14 03:48:54;;;;;;;10.63;8.40;;;;;;;9.72;100.00;100585.41;2078986;28;33436;-72
2022/09/14 03:50:01;;;;;;;12.15;8.20;;;;;;;9.69;100.00;100588.13;2079824;28;32095;-72
2022/09/14 03:51:06;;;;;;;11.18;7.47;;;;;;;9.70;100.00;100590.78;2079124;28;37248;-72
2022/09/14 03:52:08;;;;;;;14.40;8.35;;;;;;;9.74;100.00;100596.94;2078616;28;31171;-72
2022/09/14 03:53:09;;;;;;;14.90;8.68;;;;;;;9.73;100.00;100593.38;2078809;28;33911;-72
2022/09/14 03:54:11;;;;;;;11.23;7.65;;;;;;;9.74;100.00;100595.16;2079506;28;35309;-72
2022/09/14 03:55:13;;;;;;;14.18;7.80;;;;;;;9.77;100.00;100594.19;2078785;28;37062;-72
2022/09/14 03:56:18;;;;;;;11.82;8.40;;;;;;;9.81;100.00;100592.31;2079873;28;32939;-72
2022/09/14 03:57:20;;;;;;;12.25;7.85;;;;;;;9.82;100.00;100586.94;2079519;28;36182;-72
2022/09/14 03:58:23;;;;;;;12.80;8.27;;;;;;;9.88;100.00;100589.44;2079690;28;31873;-72
2022/09/14 03:59:25;;;;;;;14.07;8.50;;;;;;;9.90;100.00;100592.94;2079345;28;30965;-72
2022/09/14 04:00:27;;;;;;;13.57;7.80;;;;;;;9.91;100.00;100597.38;2080306;28;20038;-71
2022/09/14 04:01:28;;;;;;;14.95;8.57;;;;;;;9.96;100.00;100591.03;2079456;28;31543;-72
2022/09/14 04:02:30;;;;;;;13.20;6.75;;;;;;;9.98;100.00;100589.19;2079692;28;37826;-72
2022/09/14 04:03:34;;;;;;;17.42;8.30;;;;;;;10.01;100.00;100592.66;2079347;28;35558;-72
2022/09/14 04:04:38;;;;;;;9.55;6.95;;;;;;;10.04;100.00;100586.38;2079111;28;38473;-72
2022/09/14 04:05:40;;;;;;;11.98;7.15;;;;;;;10.04;100.00;100589.91;2079205;28;34695;-71
2022/09/14 04:06:42;;;;;;;11.30;7.13;;;;;;;10.06;100.00;100587.22;2079196;28;38547;-71
2022/09/14 04:07:44;;;;;;;13.05;8.20;;;;;;;10.08;100.00;100583.56;2079295;28;29636;-71
2022/09/14 04:08:46;;;;;;;7.68;6.47;;;;;;;10.08;100.00;100580.88;2080318;28;20068;-71
2022/09/14 04:09:48;;;;;;;12.20;8.07;;;;;;;10.10;100.00;100579.06;2079077;28;38601;-71
2022/09/14 04:10:50;;;;;;;10.65;7.78;;;;;;;10.12;100.00;100577.22;2079246;28;41393;-72
2022/09/14 04:11:52;;;;;;;12.30;7.68;;;;;;;10.15;100.00;100575.38;2078846;28;31204;-72
2022/09/14 04:12:56;;;;;;;10.20;7.18;;;;;;;10.14;100.00;100569.16;2079298;28;39465;-71
2022/09/14 04:14:04;;;;;;;11.48;6.60;;;;;;;10.16;100.00;100561.97;2078650;28;35593;-72
2022/09/14 04:15:07;;;;;;;10.40;6.80;;;;;;;10.18;100.00;100568.16;2079516;28;20037;-72
2022/09/14 04:16:09;;;;;;;8.82;6.70;;;;;;;10.19;100.00;100563.66;2078387;28;39790;-72
2022/09/14 04:17:11;;;;;;;10.00;6.95;;;;;;;10.20;100.00;100574.34;2080200;28;20026;-72
2022/09/14 04:18:12;;;;;;;7.90;6.63;;;;;;;10.22;100.00;100572.50;2079275;28;33581;-72
2022/09/14 04:19:19;;;;;;;11.55;6.80;;;;;;;10.23;100.00;100563.56;2079492;28;31773;-71
2022/09/14 04:20:23;;;;;;;8.95;6.78;;;;;;;10.25;100.00;100568.88;2079148;28;37681;-72
2022/09/14 04:21:25;;;;;;;12.20;6.97;;;;;;;10.25;100.00;100566.19;2079378;28;32076;-71
2022/09/14 04:22:27;;;;;;;12.23;6.63;;;;;;;10.25;100.00;100569.75;2079345;28;33656;-71
2022/09/14 04:23:31;;;;;;;9.85;6.32;;;;;;;10.27;100.00;100564.34;2079538;28;34617;-71
2022/09/14 04:24:33;;;;;;;7.45;6.13;;;;;;;10.28;100.00;100561.63;2078853;28;31299;-72
2022/09/14 04:25:34;;;;;;;14.20;6.85;;;;;;;10.29;100.00;100559.81;2080026;28;36139;-71
2022/09/14 04:26:36;;;;;;;8.63;5.88;;;;;;;10.30;100.00;100554.44;2078857;28;34292;-71
2022/09/14 04:27:38;;;;;;;12.48;7.13;;;;;;;10.31;100.00;100558.88;2079435;28;30560;-72
2022/09/14 04:28:40;;;;;;;9.85;6.65;;;;;;;10.34;100.00;100547.25;2079203;28;33142;-72
2022/09/14 04:29:41;;;;;;;9.38;6.78;;;;;;;10.35;100.00;100556.13;2087215;28;31261;-72
2022/09/14 04:30:43;;;;;;;8.82;6.80;;;;;;;10.37;100.00;100560.50;2086874;28;35378;-72
2022/09/14 04:31:45;;;;;;;8.63;6.30;;;;;;;10.40;100.00;100559.56;2079370;28;32051;-72
2022/09/14 04:32:47;;;;;;;14.43;7.53;;;;;;;10.41;100.00;100561.28;2079032;28;33247;-71
2022/09/14 04:33:50;;;;;;;13.02;6.57;;;;;;;10.40;100.00;100555.06;2079506;28;29674;-72
2022/09/14 04:34:51;;;;;;;8.18;5.93;;;;;;;10.44;100.00;100555.88;2078895;28;34351;-71
2022/09/14 04:36:12;;;;;;;10.20;6.13;;;;;;;10.44;100.00;100553.19;2080336;28;20041;-72
2022/09/14 04:37:13;;;;;;;8.10;5.45;;;;;;;10.44;100.00;100550.50;2079298;28;32928;-71
2022/09/14 04:38:15;;;;;;;7.32;5.72;;;;;;;10.43;100.00;100543.41;2079008;28;39370;-71
2022/09/14 04:39:18;;;;;;;8.98;5.18;;;;;;;10.43;100.00;100548.78;2079155;28;20954;-71
2022/09/14 04:40:20;;;;;;;11.73;6.32;;;;;;;10.42;100.00;100555.03;2078308;28;39760;-72
2022/09/14 04:41:23;;;;;;;7.38;5.97;;;;;;;10.40;100.00;100554.22;2072652;28;32043;-71
2022/09/14 04:42:25;;;;;;;13.38;6.15;;;;;;;10.39;100.00;100563.16;2062240;28;37357;-71
2022/09/14 04:43:26;;;;;;;10.18;6.47;;;;;;;10.39;100.00;100560.47;2061961;28;39780;-72
2022/09/14 04:44:28;;;;;;;11.52;6.82;;;;;;;10.38;100.00;100567.63;2070714;28;38190;-72
2022/09/14 04:45:30;;;;;;;10.68;6.13;;;;;;;10.38;100.00;100566.75;2070672;28;38963;-71
2022/09/14 04:46:34;;;;;;;7.18;5.70;;;;;;;10.38;100.00;100564.09;2071612;28;20047;-72
2022/09/14 04:47:36;;;;;;;6.60;5.18;;;;;;;10.37;100.00;100565.84;2071079;28;37928;-71
2022/09/14 04:48:38;;;;;;;11.50;5.78;;;;;;;10.37;100.00;100568.53;2071775;28;35766;-72
2022/09/14 04:49:43;;;;;;;8.68;5.85;;;;;;;10.35;100.00;100562.34;2072430;28;32236;-72
2022/09/14 04:50:45;;;;;;;9.57;5.65;;;;;;;10.35;100.00;100561.47;2072426;28;41518;-71
2022/09/14 04:51:49;;;;;;;8.05;6.10;;;;;;;10.32;100.00;100547.28;2072963;28;20038;-71
2022/09/14 04:52:51;;;;;;;11.00;5.53;;;;;;;10.33;100.00;100556.16;2072802;28;30272;-72
2022/09/14 04:53:55;;;;;;;9.98;6.38;;;;;;;10.30;100.00;100549.09;2071969;28;34827;-71
2022/09/14 04:54:58;;;;;;;7.63;5.60;;;;;;;10.30;100.00;100550.88;2072003;28;36015;-72
2022/09/14 04:56:03;;;;;;;8.80;6.00;;;;;;;10.29;100.00;100550.00;2071596;28;39365;-73
2022/09/14 04:57:05;;;;;;;6.70;5.07;;;;;;;10.28;100.00;100558.97;2072328;28;35048;-72
2022/09/14 04:58:07;;;;;;;10.13;6.20;;;;;;;10.27;100.00;100549.16;2071989;28;38657;-72
2022/09/14 04:59:10;;;;;;;8.85;5.40;;;;;;;10.26;100.00;100558.09;2071959;28;39373;-71
2022/09/14 05:00:12;;;;;;;10.10;6.35;;;;;;;10.27;100.00;100554.50;2072147;28;34115;-71
2022/09/14 05:01:19;;;;;;;7.15;4.68;;;;;;;10.27;100.00;100553.66;2072450;28;31605;-71
2022/09/14 05:02:25;;;;;;;10.98;6.15;;;;;;;10.27;100.00;100554.50;2072205;28;40801;-72
2022/09/14 05:03:27;;;;;;;8.68;5.70;;;;;;;10.26;100.00;100550.06;2072776;28;20116;-72
2022/09/14 05:04:29;;;;;;;8.63;4.85;;;;;;;10.25;100.00;100548.34;2072103;28;34537;-72
2022/09/14 05:05:34;;;;;;;8.57;5.10;;;;;;;10.24;100.00;100549.25;2071919;28;30772;-72
2022/09/14 05:06:39;;;;;;;9.43;5.15;;;;;;;10.24;100.00;100546.56;2064358;28;32619;-71
2022/09/14 05:07:40;;;;;;;7.72;5.28;;;;;;;10.24;100.00;100549.25;2071647;28;36453;-71
2022/09/14 05:08:44;;;;;;;7.57;5.97;;;;;;;10.25;100.00;100551.00;2072770;28;20073;-71
2022/09/14 05:09:45;;;;;;;6.03;4.75;;;;;;;10.25;100.00;100559.03;2071720;28;37846;-71
2022/09/14 05:10:47;;;;;;;6.32;4.68;;;;;;;10.24;100.00;100549.25;2071970;28;33003;-71
2022/09/14 05:11:50;;;;;;;11.70;6.38;;;;;;;10.24;100.00;100554.59;2080593;28;31105;-72
2022/09/14 05:12:52;;;;;;;9.52;6.63;;;;;;;10.25;100.00;100564.38;2080250;28;34641;-71